createdAt,value
2022-10-02T00:01:00.140Z,3.6
2022-10-02T00:02:08.904Z,3.8
2022-10-02T00:03:17.325Z,3.8
2022-10-02T00:04:25.807Z,3.8
2022-10-02T00:05:34.340Z,3.2
2022-10-02T00:06:42.750Z,3.2
2022-10-02T00:07:51.149Z,3.2
2022-10-02T00:08:59.739Z,3.2
2022-10-02T00:10:08.185Z,3.2
2022-10-02T00:11:16.570Z,3.2
2022-10-02T00:12:25.163Z,3.7
2022-10-02T00:13:33.561Z,3.7
2022-10-02T00:14:41.971Z,3.7
2022-10-02T00:15:50.572Z,3
2022-10-02T00:16:59.046Z,3
2022-10-02T00:18:07.373Z,3
2022-10-02T00:19:15.969Z,3.3
2022-10-02T00:20:24.378Z,3.3
2022-10-02T00:21:32.767Z,3.3
2022-10-02T00:22:41.370Z,4.5
2022-10-02T00:23:49.816Z,4.5
2022-10-02T00:24:58.184Z,4.5
2022-10-02T00:26:06.774Z,6.8
2022-10-02T00:27:15.197Z,6.8
2022-10-02T00:28:23.627Z,6.8
2022-10-02T00:29:32.189Z,9.3
2022-10-02T00:30:40.583Z,9.3
2022-10-02T00:31:49.013Z,9.3
2022-10-02T00:32:57.600Z,5.1
2022-10-02T00:34:06.027Z,5.1
2022-10-02T00:35:14.408Z,5.1
2022-10-02T00:36:23.017Z,4.3
2022-10-02T00:37:31.409Z,4.3
2022-10-02T00:38:39.777Z,4.3
2022-10-02T00:39:48.388Z,4.3
2022-10-02T00:40:56.783Z,4.3
2022-10-02T00:42:05.183Z,4.3
2022-10-02T00:43:13.802Z,3.9
2022-10-02T00:44:22.207Z,3.9
2022-10-02T00:45:30.598Z,3.9
2022-10-02T00:46:39.206Z,4.4
2022-10-02T00:47:47.623Z,4.4
2022-10-02T00:48:55.991Z,4.4
2022-10-02T00:50:04.595Z,4.5
2022-10-02T00:51:12.980Z,4.5
2022-10-02T00:52:21.388Z,4.5
2022-10-02T00:53:30.005Z,4.4
2022-10-02T00:54:38.392Z,4.4
2022-10-02T00:55:46.824Z,4.4
2022-10-02T00:56:55.432Z,4.6
2022-10-02T00:58:03.809Z,4.6
2022-10-02T00:59:12.221Z,4.6
2022-10-02T01:00:20.834Z,4.8
2022-10-02T01:01:29.251Z,4.8
2022-10-02T01:02:37.599Z,4.8
2022-10-02T01:03:46.193Z,4.5
2022-10-02T01:04:54.591Z,4.5
2022-10-02T01:06:03.005Z,4.5
2022-10-02T01:07:11.602Z,4.2
2022-10-02T01:08:19.994Z,4.2
2022-10-02T01:09:28.415Z,4.2
2022-10-02T01:10:37.908Z,3.9
2022-10-02T01:11:46.335Z,3.9
2022-10-02T01:12:54.713Z,3.9
2022-10-02T01:14:03.302Z,3.7
2022-10-02T01:15:11.721Z,3.7
2022-10-02T01:16:20.176Z,3.7
2022-10-02T01:17:28.726Z,4.1
2022-10-02T01:18:37.148Z,4.1
2022-10-02T01:19:45.529Z,4.1
2022-10-02T01:20:54.131Z,3.5
2022-10-02T01:22:02.553Z,3.5
2022-10-02T01:23:10.972Z,3.5
2022-10-02T01:24:19.544Z,3.8
2022-10-02T01:25:27.953Z,3.8
2022-10-02T01:26:36.615Z,3.8
2022-10-02T01:27:45.085Z,3.9
2022-10-02T01:28:53.355Z,3.9
2022-10-02T01:30:01.732Z,3.9
2022-10-02T01:31:10.505Z,3.9
2022-10-02T01:32:18.738Z,3.9
2022-10-02T01:33:27.130Z,3.9
2022-10-02T01:34:35.795Z,3.8
2022-10-02T01:35:44.196Z,3.8
2022-10-02T01:36:52.588Z,3.8
2022-10-02T01:38:01.198Z,3.5
2022-10-02T01:39:09.603Z,3.5
2022-10-02T01:40:18.018Z,3.5
2022-10-02T01:41:26.648Z,3.7
2022-10-02T01:42:35.048Z,3.7
2022-10-02T01:43:43.465Z,3.7
2022-10-02T01:44:52.049Z,3.6
2022-10-02T01:46:00.505Z,3.6
2022-10-02T01:47:08.876Z,3.6
2022-10-02T01:48:17.476Z,3.7
2022-10-02T01:49:25.857Z,3.7
2022-10-02T01:50:34.243Z,3.7
2022-10-02T01:51:42.852Z,3.8
2022-10-02T01:52:51.217Z,3.8
2022-10-02T01:53:59.620Z,3.8
2022-10-02T01:55:08.224Z,3.7
2022-10-02T01:56:16.652Z,3.7
2022-10-02T01:57:25.078Z,3.7
2022-10-02T01:58:33.673Z,3.3
2022-10-02T01:59:42.101Z,3.3
2022-10-02T02:00:50.527Z,3.3
2022-10-02T02:01:59.113Z,3.1
2022-10-02T02:03:07.451Z,3.1
2022-10-02T02:04:15.842Z,3.1
2022-10-02T02:05:24.465Z,3.2
2022-10-02T02:06:33.012Z,3.2
2022-10-02T02:07:41.270Z,3.2
2022-10-02T02:08:49.860Z,3.2
2022-10-02T02:09:58.261Z,3.2
2022-10-02T02:11:06.658Z,3.2
2022-10-02T02:12:15.269Z,3
2022-10-02T02:13:23.665Z,3
2022-10-02T02:14:32.044Z,3
2022-10-02T02:15:40.664Z,3.6
2022-10-02T02:16:49.115Z,3.6
2022-10-02T02:17:57.432Z,3.6
2022-10-02T02:19:06.175Z,4
2022-10-02T02:20:14.607Z,4
2022-10-02T02:21:23.017Z,4
2022-10-02T02:22:31.626Z,3.9
2022-10-02T02:23:40.024Z,3.9
2022-10-02T02:24:48.412Z,3.9
2022-10-02T02:25:57.025Z,4.1
2022-10-02T02:27:05.449Z,4.1
2022-10-02T02:28:13.831Z,4.1
2022-10-02T02:29:22.431Z,4
2022-10-02T02:30:30.859Z,4
2022-10-02T02:31:39.281Z,4
2022-10-02T02:32:47.828Z,4.3
2022-10-02T02:33:56.226Z,4.3
2022-10-02T02:35:04.660Z,4.3
2022-10-02T02:36:13.281Z,4.4
2022-10-02T02:37:21.671Z,4.4
2022-10-02T02:38:30.083Z,4.4
2022-10-02T02:39:38.692Z,4.4
2022-10-02T02:40:47.094Z,4.4
2022-10-02T02:41:55.484Z,4.4
2022-10-02T02:43:04.088Z,4.4
2022-10-02T02:44:12.492Z,4.4
2022-10-02T02:45:20.889Z,4.4
2022-10-02T02:46:29.507Z,4
2022-10-02T02:47:37.898Z,4
2022-10-02T02:48:46.270Z,4
2022-10-02T02:49:54.876Z,4.5
2022-10-02T02:51:03.339Z,4.5
2022-10-02T02:52:11.644Z,4.5
2022-10-02T02:53:20.269Z,4
2022-10-02T02:54:28.636Z,4
2022-10-02T02:55:40.361Z,4
2022-10-02T02:56:45.686Z,4
2022-10-02T02:57:54.094Z,4
2022-10-02T02:59:02.471Z,4
2022-10-02T03:00:11.083Z,4.2
2022-10-02T03:01:19.540Z,4.2
2022-10-02T03:02:27.917Z,4.2
2022-10-02T03:03:36.504Z,4.3
2022-10-02T03:04:44.880Z,4.3
2022-10-02T03:05:53.312Z,4.3
2022-10-02T03:07:01.925Z,4.2
2022-10-02T03:08:10.315Z,4.2
2022-10-02T03:09:18.704Z,4.2
2022-10-02T03:10:27.323Z,4.1
2022-10-02T03:11:35.719Z,4.1
2022-10-02T03:12:44.125Z,4.1
2022-10-02T03:13:52.787Z,4.2
2022-10-02T03:15:01.140Z,4.2
2022-10-02T03:16:09.559Z,4.2
2022-10-02T03:17:18.106Z,4.5
2022-10-02T03:18:26.505Z,4.5
2022-10-02T03:19:34.926Z,4.5
2022-10-02T03:20:43.501Z,4.6
2022-10-02T03:21:51.888Z,4.6
2022-10-02T03:23:00.290Z,4.6
2022-10-02T03:24:08.887Z,4.3
2022-10-02T03:25:17.307Z,4.3
2022-10-02T03:26:25.738Z,4.3
2022-10-02T03:27:35.228Z,4.6
2022-10-02T03:28:55.350Z,4.6
2022-10-02T03:29:51.113Z,4.6
2022-10-02T03:30:59.734Z,5
2022-10-02T03:32:08.130Z,5
2022-10-02T03:33:16.513Z,5
2022-10-02T03:34:25.112Z,4.7
2022-10-02T03:35:33.544Z,4.7
2022-10-02T03:36:41.913Z,4.7
2022-10-02T03:37:50.493Z,4.4
2022-10-02T03:39:20.186Z,4.4
2022-10-02T03:40:07.304Z,4.4
2022-10-02T03:41:15.916Z,5
2022-10-02T03:42:24.379Z,5
2022-10-02T03:43:32.749Z,5
2022-10-02T03:44:41.370Z,5.3
2022-10-02T03:45:51.815Z,5.3
2022-10-02T03:46:58.185Z,5.3
2022-10-02T03:48:06.793Z,5.6
2022-10-02T03:49:15.192Z,5.6
2022-10-02T03:50:23.592Z,5.6
2022-10-02T03:51:32.228Z,5.5
2022-10-02T03:52:40.586Z,5.5
2022-10-02T03:53:49.002Z,5.5
2022-10-02T03:54:57.627Z,5.8
2022-10-02T03:56:06.020Z,5.8
2022-10-02T03:57:14.408Z,5.8
2022-10-02T03:58:22.998Z,6.4
2022-10-02T03:59:31.382Z,6.4
2022-10-02T04:00:39.797Z,6.4
2022-10-02T04:01:49.326Z,6.4
2022-10-02T04:02:56.802Z,6.4
2022-10-02T04:04:05.195Z,6.4
2022-10-02T04:05:13.870Z,6.7
2022-10-02T04:06:22.259Z,6.7
2022-10-02T04:07:30.659Z,6.7
2022-10-02T04:08:39.267Z,6.3
2022-10-02T04:09:47.656Z,6.3
2022-10-02T04:10:56.039Z,6.3
2022-10-02T04:12:04.620Z,6.8
2022-10-02T04:13:13.026Z,6.8
2022-10-02T04:14:21.430Z,6.8
2022-10-02T04:15:30.082Z,6.3
2022-10-02T04:16:38.915Z,6.3
2022-10-02T04:17:46.862Z,6.3
2022-10-02T04:18:55.479Z,6.9
2022-10-02T04:20:03.882Z,6.9
2022-10-02T04:21:12.271Z,6.9
2022-10-02T04:22:20.882Z,7.1
2022-10-02T04:23:29.301Z,7.1
2022-10-02T04:24:37.686Z,7.1
2022-10-02T04:25:46.294Z,7.6
2022-10-02T04:26:54.709Z,7.6
2022-10-02T04:28:03.178Z,7.6
2022-10-02T04:29:11.698Z,7.4
2022-10-02T04:30:20.121Z,7.4
2022-10-02T04:31:28.551Z,7.4
2022-10-02T04:32:37.099Z,7.1
2022-10-02T04:33:45.509Z,7.1
2022-10-02T04:34:53.932Z,7.1
2022-10-02T04:36:02.530Z,7.4
2022-10-02T04:37:10.922Z,7.4
2022-10-02T04:38:19.319Z,7.4
2022-10-02T04:39:28.025Z,6.9
2022-10-02T04:40:36.325Z,6.9
2022-10-02T04:41:44.727Z,6.9
2022-10-02T04:42:53.324Z,6.6
2022-10-02T04:44:01.721Z,6.6
2022-10-02T04:45:10.106Z,6.6
2022-10-02T04:46:18.703Z,6.2
2022-10-02T04:47:27.113Z,6.2
2022-10-02T04:48:35.485Z,6.2
2022-10-02T04:49:44.078Z,5.6
2022-10-02T04:50:52.488Z,5.6
2022-10-02T04:52:00.892Z,5.6
2022-10-02T04:53:09.513Z,5.3
2022-10-02T04:54:17.906Z,5.3
2022-10-02T04:55:26.321Z,5.3
2022-10-02T04:56:35.136Z,5.3
2022-10-02T04:57:43.311Z,5.3
2022-10-02T04:58:51.726Z,5.3
2022-10-02T05:00:00.371Z,5.2
2022-10-02T05:01:08.767Z,5.2
2022-10-02T05:02:17.141Z,5.2
2022-10-02T05:03:25.723Z,4.8
2022-10-02T05:04:34.122Z,4.8
2022-10-02T05:05:42.531Z,4.8
2022-10-02T05:06:51.124Z,20.5
2022-10-02T05:07:59.527Z,20.5
2022-10-02T05:09:07.931Z,20.5
2022-10-02T05:10:16.556Z,5.8
2022-10-02T05:11:24.994Z,5.8
2022-10-02T05:12:33.342Z,5.8
2022-10-02T05:13:41.938Z,5.1
2022-10-02T05:14:50.369Z,5.1
2022-10-02T05:15:58.802Z,5.1
2022-10-02T05:17:07.324Z,4.3
2022-10-02T05:18:17.952Z,4.3
2022-10-02T05:19:24.135Z,4.3
2022-10-02T05:20:32.738Z,4.3
2022-10-02T05:21:41.121Z,4.3
2022-10-02T05:22:49.505Z,4.3
2022-10-02T05:23:58.142Z,4.9
2022-10-02T05:25:06.586Z,4.9
2022-10-02T05:26:14.963Z,4.9
2022-10-02T05:27:23.598Z,4.3
2022-10-02T05:28:31.990Z,4.3
2022-10-02T05:29:40.348Z,4.3
2022-10-02T05:30:48.979Z,4.1
2022-10-02T05:31:57.370Z,4.1
2022-10-02T05:33:05.760Z,4.1
2022-10-02T05:34:14.377Z,3.9
2022-10-02T05:35:22.756Z,3.9
2022-10-02T05:36:31.130Z,3.9
2022-10-02T05:37:39.741Z,3.7
2022-10-02T05:38:48.159Z,3.7
2022-10-02T05:39:56.587Z,3.7
2022-10-02T05:41:05.174Z,4.2
2022-10-02T05:42:13.574Z,4.2
2022-10-02T05:43:22.065Z,4.2
2022-10-02T05:44:30.681Z,3.7
2022-10-02T05:45:39.079Z,3.7
2022-10-02T05:46:47.696Z,3.7
2022-10-02T05:47:56.169Z,3.8
2022-10-02T05:49:04.568Z,3.8
2022-10-02T05:50:12.950Z,3.8
2022-10-02T05:51:21.544Z,3.2
2022-10-02T05:52:29.926Z,3.2
2022-10-02T05:53:38.332Z,3.2
2022-10-02T05:54:46.941Z,3.2
2022-10-02T05:55:55.333Z,3.2
2022-10-02T05:57:03.708Z,3.2
2022-10-02T05:58:12.315Z,3.5
2022-10-02T05:59:20.735Z,3.5
2022-10-02T06:00:29.111Z,3.5
2022-10-02T06:01:37.734Z,3.7
2022-10-02T06:02:46.094Z,3.7
2022-10-02T06:03:54.504Z,3.7
2022-10-02T06:05:03.103Z,3.6
2022-10-02T06:06:11.550Z,3.6
2022-10-02T06:07:19.915Z,3.6
2022-10-02T06:08:28.500Z,3.6
2022-10-02T06:09:36.894Z,3.6
2022-10-02T06:10:45.298Z,3.6
2022-10-02T06:11:53.869Z,3.6
2022-10-02T06:13:02.283Z,3.6
2022-10-02T06:14:10.652Z,3.6
2022-10-02T06:15:19.251Z,3.4
2022-10-02T06:16:27.772Z,3.4
2022-10-02T06:17:36.038Z,3.4
2022-10-02T06:18:44.637Z,3.7
2022-10-02T06:19:53.056Z,3.7
2022-10-02T06:21:01.437Z,3.7
2022-10-02T06:22:10.041Z,3.4
2022-10-02T06:23:18.421Z,3.4
2022-10-02T06:24:26.824Z,3.4
2022-10-02T06:25:35.423Z,2.9
2022-10-02T06:26:43.787Z,2.9
2022-10-02T06:27:52.214Z,2.9
2022-10-02T06:29:00.800Z,3.1
2022-10-02T06:30:09.176Z,3.1
2022-10-02T06:31:17.635Z,3.1
2022-10-02T06:32:26.152Z,3.3
2022-10-02T06:33:34.546Z,3.3
2022-10-02T06:34:47.131Z,3.3
2022-10-02T06:35:51.502Z,2.4
2022-10-02T06:36:59.898Z,2.4
2022-10-02T06:38:08.282Z,2.4
2022-10-02T06:39:16.882Z,1.9
2022-10-02T06:40:25.302Z,1.9
2022-10-02T06:41:33.621Z,1.9
2022-10-02T06:42:42.206Z,1.7
2022-10-02T06:43:50.610Z,1.7
2022-10-02T06:44:58.993Z,1.7
2022-10-02T06:46:07.600Z,1.8
2022-10-02T06:47:15.988Z,1.8
2022-10-02T06:48:24.357Z,1.8
2022-10-02T06:49:32.962Z,1.5
2022-10-02T06:50:41.328Z,1.5
2022-10-02T06:51:49.686Z,1.5
2022-10-02T06:52:58.264Z,1.2
2022-10-02T06:54:06.652Z,1.2
2022-10-02T06:55:15.034Z,1.2
2022-10-02T06:56:23.624Z,1.1
2022-10-02T06:57:32.013Z,1.1
2022-10-02T06:58:40.413Z,1.1
2022-10-02T06:59:49.090Z,1.2
2022-10-02T07:00:57.503Z,1.2
2022-10-02T07:02:05.888Z,1.2
2022-10-02T07:03:14.494Z,1.6
2022-10-02T07:04:22.858Z,1.6
2022-10-02T07:05:31.260Z,1.6
2022-10-02T07:06:40.094Z,0.9
2022-10-02T07:07:48.242Z,0.9
2022-10-02T07:08:56.620Z,0.9
2022-10-02T07:10:05.223Z,0.7
2022-10-02T07:11:13.597Z,0.7
2022-10-02T07:12:21.976Z,0.7
2022-10-02T07:13:30.576Z,0.6
2022-10-02T07:14:38.984Z,0.6
2022-10-02T07:15:47.342Z,0.6
2022-10-02T07:16:55.994Z,1
2022-10-02T07:18:05.026Z,1
2022-10-02T07:19:13.411Z,1
2022-10-02T07:20:22.005Z,0.8
2022-10-02T07:21:30.410Z,0.8
2022-10-02T07:22:46.177Z,0.8
2022-10-02T07:23:47.415Z,1.1
2022-10-02T07:24:55.802Z,1.1
2022-10-02T07:26:04.184Z,1.1
2022-10-02T07:27:12.789Z,1.2
2022-10-02T07:28:21.257Z,1.2
2022-10-02T07:29:29.586Z,1.2
2022-10-02T07:30:38.184Z,1.3
2022-10-02T07:31:46.681Z,1.3
2022-10-02T07:32:54.966Z,1.3
2022-10-02T07:34:03.566Z,1.9
2022-10-02T07:35:11.988Z,1.9
2022-10-02T07:36:20.365Z,1.9
2022-10-02T07:37:28.960Z,3.7
2022-10-02T07:38:37.350Z,3.7
2022-10-02T07:39:45.741Z,3.7
2022-10-02T07:40:56.991Z,4.1
2022-10-02T07:42:02.695Z,4.1
2022-10-02T07:43:11.112Z,4.1
2022-10-02T07:44:19.717Z,4.2
2022-10-02T07:45:28.179Z,4.2
2022-10-02T07:46:36.630Z,4.2
2022-10-02T07:47:45.098Z,7.5
2022-10-02T07:48:53.475Z,7.5
2022-10-02T07:50:01.853Z,7.5
2022-10-02T07:51:10.467Z,5.6
2022-10-02T07:52:18.843Z,5.6
2022-10-02T07:53:27.240Z,5.6
2022-10-02T07:54:35.854Z,2.6
2022-10-02T07:55:44.244Z,2.6
2022-10-02T07:56:52.612Z,2.6
2022-10-02T07:58:01.220Z,2.1
2022-10-02T07:59:09.594Z,2.1
2022-10-02T08:00:17.981Z,2.1
2022-10-02T08:01:26.566Z,3.1
2022-10-02T08:02:35.022Z,3.1
2022-10-02T08:03:43.362Z,3.1
2022-10-02T08:04:51.958Z,2.4
2022-10-02T08:06:00.327Z,2.4
2022-10-02T08:07:08.776Z,2.4
2022-10-02T08:08:17.332Z,2.7
2022-10-02T08:09:25.724Z,2.7
2022-10-02T08:10:34.093Z,2.7
2022-10-02T08:11:45.058Z,2.5
2022-10-02T08:12:51.080Z,2.5
2022-10-02T08:13:59.475Z,2.5
2022-10-02T08:15:08.079Z,3.1
2022-10-02T08:16:16.480Z,3.1
2022-10-02T08:17:24.853Z,3.1
2022-10-02T08:18:34.950Z,3.4
2022-10-02T08:19:41.828Z,3.4
2022-10-02T08:20:50.232Z,3.4
2022-10-02T08:21:58.785Z,3.8
2022-10-02T08:23:07.225Z,3.8
2022-10-02T08:24:15.592Z,3.8
2022-10-02T08:25:24.174Z,2.8
2022-10-02T08:26:35.524Z,2.8
2022-10-02T08:27:40.988Z,2.8
2022-10-02T08:28:49.595Z,3.9
2022-10-02T08:29:57.968Z,3.9
2022-10-02T08:31:06.369Z,3.9
2022-10-02T08:32:14.973Z,3.8
2022-10-02T08:33:23.372Z,3.8
2022-10-02T08:34:31.748Z,3.8
2022-10-02T08:35:40.324Z,3.5
2022-10-02T08:36:48.703Z,3.5
2022-10-02T08:37:57.100Z,3.5
2022-10-02T08:39:05.714Z,3.8
2022-10-02T08:40:14.073Z,3.8
2022-10-02T08:41:22.462Z,3.8
2022-10-02T08:42:31.051Z,3.7
2022-10-02T08:43:39.464Z,3.7
2022-10-02T08:44:47.853Z,3.7
2022-10-02T08:45:56.531Z,3.9
2022-10-02T08:47:04.826Z,3.9
2022-10-02T08:48:13.234Z,3.9
2022-10-02T08:49:21.797Z,3
2022-10-02T08:50:30.235Z,3
2022-10-02T08:51:38.576Z,3
2022-10-02T08:52:47.190Z,2.7
2022-10-02T08:53:55.585Z,2.7
2022-10-02T08:55:03.984Z,2.7
2022-10-02T08:56:15.392Z,2.8
2022-10-02T08:57:20.957Z,2.8
2022-10-02T08:58:29.344Z,2.8
2022-10-02T08:59:37.945Z,3.3
2022-10-02T09:00:46.408Z,3.3
2022-10-02T09:01:58.995Z,3.3
2022-10-02T09:03:03.345Z,2.9
2022-10-02T09:04:11.690Z,2.9
2022-10-02T09:05:20.103Z,2.9
2022-10-02T09:06:28.715Z,3.5
2022-10-02T09:07:37.123Z,3.5
2022-10-02T09:08:45.501Z,3.5
2022-10-02T09:09:54.104Z,3
2022-10-02T09:11:02.536Z,3
2022-10-02T09:12:10.886Z,3
2022-10-02T09:13:19.534Z,4.1
2022-10-02T09:14:27.898Z,4.1
2022-10-02T09:15:36.299Z,4.1
2022-10-02T09:16:44.970Z,4
2022-10-02T09:17:53.308Z,4
2022-10-02T09:19:01.695Z,4
2022-10-02T09:20:10.281Z,3.3
2022-10-02T09:21:18.665Z,3.3
2022-10-02T09:22:27.058Z,3.3
2022-10-02T09:23:35.642Z,3.2
2022-10-02T09:24:44.031Z,3.2
2022-10-02T09:25:52.420Z,3.2
2022-10-02T09:27:01.038Z,2.9
2022-10-02T09:28:09.443Z,2.9
2022-10-02T09:29:17.807Z,2.9
2022-10-02T09:30:26.402Z,2.9
2022-10-02T09:31:34.881Z,2.9
2022-10-02T09:32:43.210Z,2.9
2022-10-02T09:33:51.789Z,3.1
2022-10-02T09:35:00.206Z,3.1
2022-10-02T09:36:08.593Z,3.1
2022-10-02T09:37:17.202Z,4.5
2022-10-02T09:38:25.590Z,4.5
2022-10-02T09:39:33.976Z,4.5
2022-10-02T09:40:42.566Z,2.8
2022-10-02T09:41:50.948Z,2.8
2022-10-02T09:42:59.366Z,2.8
2022-10-02T09:44:07.937Z,2.3
2022-10-02T09:45:16.322Z,2.3
2022-10-02T09:46:24.713Z,2.3
2022-10-02T09:47:33.332Z,2.7
2022-10-02T09:48:41.720Z,2.7
2022-10-02T09:49:50.106Z,2.7
2022-10-02T09:50:58.685Z,2.5
2022-10-02T09:52:07.105Z,2.5
2022-10-02T09:53:15.479Z,2.5
2022-10-02T09:54:24.071Z,2.2
2022-10-02T09:55:32.459Z,2.2
2022-10-02T09:56:40.834Z,2.2
2022-10-02T09:57:49.413Z,2.9
2022-10-02T09:58:57.816Z,2.9
2022-10-02T10:00:06.179Z,2.9
2022-10-02T10:01:14.830Z,2.5
2022-10-02T10:02:25.679Z,2.5
2022-10-02T10:03:31.539Z,2.5
2022-10-02T10:05:01.112Z,2.6
2022-10-02T10:05:48.518Z,2.6
2022-10-02T10:06:56.885Z,2.6
2022-10-02T10:08:05.495Z,2.4
2022-10-02T10:09:13.886Z,2.4
2022-10-02T10:10:22.265Z,2.4
2022-10-02T10:11:30.871Z,2
2022-10-02T10:12:39.251Z,2
2022-10-02T10:13:47.646Z,2
2022-10-02T10:14:56.255Z,1.6
2022-10-02T10:16:04.680Z,1.6
2022-10-02T10:17:13.035Z,1.6
2022-10-02T10:18:21.640Z,1.4
2022-10-02T10:19:30.019Z,1.4
2022-10-02T10:20:38.408Z,1.4
2022-10-02T10:21:47.026Z,1.5
2022-10-02T10:22:55.402Z,1.5
2022-10-02T10:24:03.790Z,1.5
2022-10-02T10:25:12.374Z,1.4
2022-10-02T10:26:20.800Z,1.4
2022-10-02T10:27:29.179Z,1.4
2022-10-02T10:28:37.798Z,1.3
2022-10-02T10:29:46.230Z,1.3
2022-10-02T10:30:54.650Z,1.3
2022-10-02T10:32:03.222Z,1.1
2022-10-02T10:33:11.566Z,1.1
2022-10-02T10:34:19.960Z,1.1
2022-10-02T10:35:28.549Z,1.5
2022-10-02T10:36:36.929Z,1.5
2022-10-02T10:37:45.310Z,1.5
2022-10-02T10:38:53.918Z,0.7
2022-10-02T10:40:02.312Z,0.7
2022-10-02T10:41:10.693Z,0.7
2022-10-02T10:42:19.263Z,0.5
2022-10-02T10:43:27.644Z,0.5
2022-10-02T10:44:36.003Z,0.5
2022-10-02T10:45:44.594Z,0.5
2022-10-02T10:46:52.949Z,0.5
2022-10-02T10:48:01.294Z,0.5
2022-10-02T10:49:09.886Z,0.5
2022-10-02T10:50:18.299Z,0.5
2022-10-02T10:51:26.704Z,0.5
2022-10-02T10:52:35.316Z,1.1
2022-10-02T10:53:43.711Z,1.1
2022-10-02T10:54:52.135Z,1.1
2022-10-02T10:56:00.726Z,1
2022-10-02T10:57:09.108Z,1
2022-10-02T10:58:17.475Z,1
2022-10-02T10:59:26.090Z,1
2022-10-02T11:00:34.488Z,1
2022-10-02T11:01:42.975Z,1
2022-10-02T11:02:51.483Z,1
2022-10-02T11:03:59.859Z,1
2022-10-02T11:05:08.275Z,1
2022-10-02T11:06:16.877Z,0.9
2022-10-02T11:07:25.269Z,0.9
2022-10-02T11:08:33.655Z,0.9
2022-10-02T11:09:43.052Z,1
2022-10-02T11:10:51.466Z,1
2022-10-02T11:11:59.854Z,1
2022-10-02T11:13:09.029Z,1.1
2022-10-02T11:14:17.533Z,1.1
2022-10-02T11:15:25.950Z,1.1
2022-10-02T11:16:34.583Z,1.3
2022-10-02T11:17:42.926Z,1.3
2022-10-02T11:18:51.354Z,1.3
2022-10-02T11:19:59.911Z,1
2022-10-02T11:21:08.302Z,1
2022-10-02T11:22:16.718Z,1
2022-10-02T11:23:25.312Z,1.6
2022-10-02T11:24:33.684Z,1.6
2022-10-02T11:25:42.071Z,1.6
2022-10-02T11:26:50.695Z,1.7
2022-10-02T11:27:59.119Z,1.7
2022-10-02T11:29:07.579Z,1.7
2022-10-02T11:30:16.093Z,1.5
2022-10-02T11:31:24.534Z,1.5
2022-10-02T11:32:32.856Z,1.5
2022-10-02T11:33:41.467Z,2.1
2022-10-02T11:34:49.876Z,2.1
2022-10-02T11:35:58.250Z,2.1
2022-10-02T11:37:06.864Z,1.8
2022-10-02T11:38:15.243Z,1.8
2022-10-02T11:39:23.643Z,1.8
2022-10-02T11:40:32.243Z,1.6
2022-10-02T11:41:40.633Z,1.6
2022-10-02T11:42:49.020Z,1.6
2022-10-02T11:43:57.608Z,1.6
2022-10-02T11:45:06.013Z,1.6
2022-10-02T11:46:14.465Z,1.6
2022-10-02T11:47:23.008Z,2
2022-10-02T11:48:31.425Z,2
2022-10-02T11:49:39.874Z,2
2022-10-02T11:50:48.471Z,1.9
2022-10-02T11:51:56.851Z,1.9
2022-10-02T11:53:05.260Z,1.9
2022-10-02T11:54:13.854Z,1.8
2022-10-02T11:55:22.246Z,1.8
2022-10-02T11:56:30.598Z,1.8
2022-10-02T11:57:39.177Z,2.1
2022-10-02T11:58:47.597Z,2.1
2022-10-02T11:59:55.976Z,2.1
2022-10-02T12:01:04.584Z,1.5
2022-10-02T12:02:16.293Z,1.5
2022-10-02T12:03:21.530Z,1.5
2022-10-02T12:04:29.942Z,1.8
2022-10-02T12:05:38.326Z,1.8
2022-10-02T12:06:46.750Z,1.8
2022-10-02T12:07:55.296Z,1.6
2022-10-02T12:09:03.701Z,1.6
2022-10-02T12:10:12.086Z,1.6
2022-10-02T12:11:20.705Z,1.7
2022-10-02T12:12:29.079Z,1.7
2022-10-02T12:13:37.471Z,1.7
2022-10-02T12:14:46.087Z,1.5
2022-10-02T12:15:54.480Z,1.5
2022-10-02T12:17:02.892Z,1.5
2022-10-02T12:18:11.459Z,1.7
2022-10-02T12:19:19.843Z,1.7
2022-10-02T12:20:28.227Z,1.7
2022-10-02T12:21:37.085Z,1.5
2022-10-02T12:22:45.277Z,1.5
2022-10-02T12:23:53.631Z,1.5
2022-10-02T12:25:02.248Z,1.3
2022-10-02T12:26:11.596Z,1.3
2022-10-02T12:27:20.059Z,1.3
2022-10-02T12:28:30.839Z,31.299999
2022-10-02T12:29:39.177Z,31.299999
2022-10-02T12:30:47.536Z,31.299999
2022-10-02T12:31:56.215Z,5.1
2022-10-02T12:33:08.569Z,5.1
2022-10-02T12:34:28.936Z,5.1
2022-10-02T12:35:37.540Z,3.9
2022-10-02T12:36:45.917Z,3.9
2022-10-02T12:37:54.359Z,3.9
2022-10-02T12:39:02.905Z,2.1
2022-10-02T12:40:11.293Z,2.1
2022-10-02T12:41:19.677Z,2.1
2022-10-02T12:42:28.256Z,3.1
2022-10-02T12:43:36.678Z,3.1
2022-10-02T12:44:45.057Z,3.1
2022-10-02T12:45:53.652Z,4.3
2022-10-02T12:47:02.020Z,4.3
2022-10-02T12:48:10.426Z,4.3
2022-10-02T12:49:18.998Z,2.6
2022-10-02T12:50:27.388Z,2.6
2022-10-02T12:51:36.144Z,2.6
2022-10-02T12:52:44.376Z,1.2
2022-10-02T12:53:52.799Z,1.2
2022-10-02T12:55:01.210Z,1.2
2022-10-02T12:56:09.801Z,2
2022-10-02T12:57:18.225Z,2
2022-10-02T12:58:26.614Z,2
2022-10-02T12:59:35.241Z,1.5
2022-10-02T13:00:43.620Z,1.5
2022-10-02T13:01:52.086Z,1.5
2022-10-02T13:03:01.733Z,1.6
2022-10-02T13:04:09.110Z,1.6
2022-10-02T13:05:17.535Z,1.6
2022-10-02T13:06:26.150Z,1.7
2022-10-02T13:07:34.559Z,1.7
2022-10-02T13:08:42.975Z,1.7
2022-10-02T13:09:51.616Z,2
2022-10-02T13:10:59.992Z,2
2022-10-02T13:12:08.424Z,2
2022-10-02T13:13:17.034Z,1.9
2022-10-02T13:14:25.462Z,1.9
2022-10-02T13:15:33.854Z,1.9
2022-10-02T13:16:42.506Z,1.7
2022-10-02T13:17:50.883Z,1.7
2022-10-02T13:18:59.265Z,1.7
2022-10-02T13:20:07.862Z,1.8
2022-10-02T13:21:16.264Z,1.8
2022-10-02T13:22:24.691Z,1.8
2022-10-02T13:23:33.272Z,1.8
2022-10-02T13:24:41.694Z,1.8
2022-10-02T13:25:50.123Z,1.8
2022-10-02T13:26:58.736Z,1.8
2022-10-02T13:28:07.239Z,1.8
2022-10-02T13:29:15.598Z,1.8
2022-10-02T13:30:24.192Z,2.1
2022-10-02T13:31:32.665Z,2.1
2022-10-02T13:32:41.045Z,2.1
2022-10-02T13:33:49.693Z,2.8
2022-10-02T13:34:58.099Z,2.8
2022-10-02T13:36:06.509Z,2.8
2022-10-02T13:37:15.129Z,2.1
2022-10-02T13:38:23.556Z,2.1
2022-10-02T13:39:31.978Z,2.1
2022-10-02T13:40:40.609Z,2.1
2022-10-02T13:41:49.069Z,2.1
2022-10-02T13:42:57.442Z,2.1
2022-10-02T13:44:06.078Z,2.7
2022-10-02T13:45:14.473Z,2.7
2022-10-02T13:46:22.884Z,2.7
2022-10-02T13:47:31.510Z,2.4
2022-10-02T13:48:39.922Z,2.4
2022-10-02T13:49:48.302Z,2.4
2022-10-02T13:50:56.927Z,2.1
2022-10-02T13:52:05.323Z,2.1
2022-10-02T13:53:13.747Z,2.1
2022-10-02T13:54:22.383Z,1.9
2022-10-02T13:55:30.803Z,1.9
2022-10-02T13:56:39.250Z,1.9
2022-10-02T13:57:47.879Z,2.4
2022-10-02T13:58:56.274Z,2.4
2022-10-02T14:00:04.770Z,2.4
2022-10-02T14:01:13.385Z,6.7
2022-10-02T14:02:21.769Z,6.7
2022-10-02T14:03:30.219Z,6.7
2022-10-02T14:04:38.751Z,8.2
2022-10-02T14:05:47.225Z,8.2
2022-10-02T14:06:55.656Z,8.2
2022-10-02T14:08:04.256Z,6.6
2022-10-02T14:09:12.654Z,6.6
2022-10-02T14:10:21.101Z,6.6
2022-10-02T14:11:29.722Z,7.1
2022-10-02T14:12:38.163Z,7.1
2022-10-02T14:13:46.658Z,7.1
2022-10-02T14:14:55.149Z,7.9
2022-10-02T14:16:03.583Z,7.9
2022-10-02T14:17:11.970Z,7.9
2022-10-02T14:18:20.539Z,4.7
2022-10-02T14:19:28.951Z,4.7
2022-10-02T14:20:37.321Z,4.7
2022-10-02T14:21:45.934Z,3.6
2022-10-02T14:22:54.293Z,3.6
2022-10-02T14:24:02.676Z,3.6
2022-10-02T14:25:11.268Z,2.7
2022-10-02T14:26:19.689Z,2.7
2022-10-02T14:27:28.073Z,2.7
2022-10-02T14:28:36.657Z,3.5
2022-10-02T14:29:45.104Z,3.5
2022-10-02T15:03:18.010Z,0
2022-10-02T15:04:26.366Z,0
2022-10-02T15:05:34.689Z,0
2022-10-02T15:06:43.256Z,1.8
2022-10-02T15:07:51.629Z,1.8
2022-10-02T15:08:59.960Z,1.8
2022-10-02T15:10:08.560Z,1.6
2022-10-02T15:11:16.894Z,1.6
2022-10-02T15:12:25.253Z,1.6
2022-10-02T15:13:33.820Z,1.9
2022-10-02T15:14:42.175Z,1.9
2022-10-02T15:15:50.649Z,1.9
2022-10-02T15:16:59.318Z,4.1
2022-10-02T15:18:08.057Z,4.1
2022-10-02T15:19:17.048Z,4.1
2022-10-02T15:20:25.950Z,2
2022-10-02T15:21:34.788Z,2
2022-10-02T15:22:43.231Z,2
2022-10-02T15:23:51.799Z,2
2022-10-02T15:25:00.432Z,2
2022-10-02T15:26:09.092Z,2
2022-10-02T15:27:17.819Z,2.2
2022-10-02T15:28:36.155Z,2.2
2022-10-02T15:29:34.605Z,2.2
2022-10-02T15:30:43.111Z,3
2022-10-02T15:31:51.492Z,3
2022-10-02T15:33:00.003Z,3
2022-10-02T15:34:08.708Z,2.6
2022-10-02T15:35:17.643Z,2.6
2022-10-02T15:36:26.346Z,2.6
2022-10-02T15:37:34.891Z,2
2022-10-02T15:38:43.267Z,2
2022-10-02T15:39:51.864Z,2
2022-10-02T15:41:00.437Z,2.1
2022-10-02T15:42:08.809Z,2.1
2022-10-02T15:43:17.143Z,2.1
2022-10-02T15:44:25.717Z,2.7
2022-10-02T15:45:34.135Z,2.7
2022-10-02T15:46:42.418Z,2.7
2022-10-02T15:47:50.969Z,2
2022-10-02T15:48:59.356Z,2
2022-10-02T15:50:07.701Z,2
2022-10-02T15:51:16.278Z,2.2
2022-10-02T15:52:24.650Z,2.2
2022-10-02T15:53:32.987Z,2.2
2022-10-02T15:54:41.569Z,2.5
2022-10-02T15:55:49.954Z,2.5
2022-10-02T15:56:58.320Z,2.5
2022-10-02T15:58:06.885Z,2.3
2022-10-02T15:59:15.267Z,2.3
2022-10-02T16:00:23.622Z,2.3
2022-10-02T16:01:32.191Z,4.2
2022-10-02T16:02:40.621Z,4.2
2022-10-02T16:03:48.910Z,4.2
2022-10-02T16:04:57.479Z,4.6
2022-10-02T16:06:05.866Z,4.6
2022-10-02T16:07:14.300Z,4.6
2022-10-02T16:08:22.761Z,5
2022-10-02T16:09:31.134Z,5
2022-10-02T16:10:39.475Z,5
2022-10-02T16:11:48.045Z,5
2022-10-02T16:12:56.439Z,5
2022-10-02T16:14:04.772Z,5
2022-10-02T16:15:13.325Z,5.2
2022-10-02T16:16:21.736Z,5.2
2022-10-02T16:17:30.018Z,5.2
2022-10-02T16:18:38.578Z,4.1
2022-10-02T16:19:46.957Z,4.1
2022-10-02T16:20:55.304Z,4.1
2022-10-02T16:22:03.870Z,2.7